Time;durP1;ratioP1;P1;durP2;ratioP2;P2;SDS_P1;SDS_P2;PMS_P1;PMS_P2;Temp;Humidity;BMP_temperature;BMP_pressure;BME280_temperature;BME280_humidity;BME280_pressure;Samples;Min_cycle;Max_cycle;Signal;HPM_P1;HPM_P2
2023/06/20 00:00:41;;;;;;;10.87;9.77;;;18.30;99.90;;;;;;5091774;28;20229;-48
2023/06/20 00:03:09;;;;;;;10.47;9.27;;;18.20;99.90;;;;;;5092481;28;20217;-48
2023/06/20 00:05:37;;;;;;;11.43;9.80;;;18.20;99.90;;;;;;5092334;28;20304;-47
2023/06/20 00:08:05;;;;;;;10.10;9.10;;;18.10;99.90;;;;;;5083503;28;20237;-48
2023/06/20 00:10:34;;;;;;;11.07;9.97;;;18.10;99.90;;;;;;5072047;28;20230;-51
2023/06/20 00:13:04;;;;;;;10.13;9.13;;;18.10;99.90;;;;;;5054099;28;20248;-49
2023/06/20 00:15:32;;;;;;;10.30;9.23;;;18.00;99.90;;;;;;5072025;28;20300;-48
2023/06/20 00:18:00;;;;;;;8.27;7.53;;;18.00;99.90;;;;;;5091875;28;20221;-49
2023/06/20 00:20:29;;;;;;;7.37;6.67;;;17.90;99.90;;;;;;5099031;28;20237;-47
2023/06/20 00:22:57;;;;;;;7.67;7.00;;;17.90;99.90;;;;;;5086505;28;20226;-50
2023/06/20 00:25:26;;;;;;;8.33;7.53;;;17.80;99.90;;;;;;5093300;28;20226;-49
2023/06/20 00:27:55;;;;;;;8.20;7.40;;;17.80;99.90;;;;;;5092206;28;20278;-49
2023/06/20 00:30:24;;;;;;;9.77;8.83;;;17.80;99.90;;;;;;5072398;28;20229;-51
2023/06/20 00:32:52;;;;;;;9.33;8.43;;;17.80;99.90;;;;;;5071949;28;20221;-50
2023/06/20 00:35:20;;;;;;;8.93;7.93;;;17.70;99.90;;;;;;5071962;28;20229;-49
2023/06/20 00:37:48;;;;;;;8.10;7.30;;;17.70;99.90;;;;;;5073014;28;20273;-49
2023/06/20 00:40:16;;;;;;;8.10;7.30;;;17.70;99.90;;;;;;5053936;28;20711;-50
2023/06/20 00:42:45;;;;;;;7.73;7.03;;;17.60;99.90;;;;;;5071708;28;20216;-45
2023/06/20 00:45:32;;;;;;;8.97;8.10;;;17.60;99.90;;;;;;5071868;28;20224;-48
2023/06/20 00:48:01;;;;;;;8.87;8.07;;;17.50;99.90;;;;;;5092253;28;20231;-50
2023/06/20 00:50:31;;;;;;;10.03;9.07;;;17.50;99.90;;;;;;5093409;28;20223;-47
2023/06/20 00:53:04;;;;;;;9.90;9.00;;;17.50;99.90;;;;;;5092413;28;20227;-49
2023/06/20 00:55:34;;;;;;;11.87;9.97;;;17.40;99.90;;;;;;5098368;28;20306;-49
2023/06/20 00:58:04;;;;;;;9.93;9.03;;;17.40;99.90;;;;;;5095506;28;20229;-49
2023/06/20 01:00:36;;;;;;;7.47;6.77;;;17.40;99.90;;;;;;5094863;28;20631;-46
2023/06/20 01:03:07;;;;;;;6.20;5.70;;;17.40;99.90;;;;;;5095458;28;20265;-47
2023/06/20 01:05:37;;;;;;;6.30;5.80;;;17.30;99.90;;;;;;5094964;28;20690;-49
2023/06/20 01:08:14;;;;;;;5.87;5.37;;;17.20;99.90;;;;;;5093823;28;20689;-49
2023/06/20 01:10:54;;;;;;;6.40;5.87;;;17.20;99.90;;;;;;5065279;28;20224;-46
2023/06/20 01:13:30;;;;;;;6.50;5.90;;;17.10;99.90;;;;;;5095168;28;20311;-47
2023/06/20 01:16:05;;;;;;;8.00;7.30;;;17.10;99.90;;;;;;5075110;28;20320;-50
2023/06/20 01:18:46;;;;;;;9.00;8.10;;;17.10;99.90;;;;;;5099011;28;20249;-47
2023/06/20 01:21:18;;;;;;;10.03;7.97;;;17.10;99.90;;;;;;5085120;28;20345;-49
2023/06/20 01:23:55;;;;;;;10.17;7.93;;;17.10;99.90;;;;;;5094524;28;20203;-47
2023/06/20 01:26:31;;;;;;;10.27;9.20;;;17.10;99.90;;;;;;5094848;28;20320;-48
2023/06/20 01:29:07;;;;;;;12.90;10.10;;;17.00;99.90;;;;;;5094929;28;20215;-50
2023/06/20 01:31:38;;;;;;;11.07;10.07;;;17.00;99.90;;;;;;5094373;28;20265;-50
2023/06/20 01:34:12;;;;;;;10.17;9.13;;;17.00;99.90;;;;;;5076656;28;20281;-51
2023/06/20 01:36:43;;;;;;;10.03;9.00;;;17.00;99.90;;;;;;5076455;28;20249;-50
2023/06/20 01:39:18;;;;;;;11.37;10.30;;;17.00;99.90;;;;;;5084362;28;20234;-50
2023/06/20 01:41:48;;;;;;;10.00;9.07;;;17.00;99.90;;;;;;5074606;28;20232;-49
2023/06/20 01:44:18;;;;;;;10.83;9.77;;;16.90;99.90;;;;;;5056499;28;20227;-50
2023/06/20 01:46:49;;;;;;;10.67;9.67;;;16.90;99.90;;;;;;5076243;28;20223;-49
2023/06/20 01:49:17;;;;;;;10.50;9.50;;;16.90;99.90;;;;;;5096324;28;20251;-49
2023/06/20 01:51:50;;;;;;;10.10;9.17;;;16.80;99.90;;;;;;5076040;28;20230;-53
2023/06/20 01:54:20;;;;;;;8.73;8.00;;;16.80;99.90;;;;;;5084664;28;20223;-50
2023/06/20 01:56:49;;;;;;;9.40;8.47;;;16.80;99.90;;;;;;5094010;28;20219;-50
2023/06/20 01:59:18;;;;;;;9.33;8.50;;;16.80;99.90;;;;;;5075653;28;20625;-49
2023/06/20 02:01:48;;;;;;;9.33;8.53;;;16.80;99.90;;;;;;5075605;28;20245;-50
2023/06/20 02:04:17;;;;;;;10.03;9.13;;;16.70;99.90;;;;;;5094357;28;20219;-50
2023/06/20 02:06:48;;;;;;;9.40;8.50;;;16.70;99.90;;;;;;5094031;28;20225;-48
2023/06/20 02:09:17;;;;;;;10.87;9.77;;;16.70;99.90;;;;;;5087130;28;20251;-50
2023/06/20 02:11:47;;;;;;;10.23;9.23;;;16.70;99.90;;;;;;5055733;28;20596;-50
2023/06/20 02:14:16;;;;;;;10.43;9.33;;;16.70;99.90;;;;;;5073756;28;20219;-52
2023/06/20 02:16:45;;;;;;;11.27;10.27;;;16.70;99.90;;;;;;5057396;28;20768;-51
2023/06/20 02:19:13;;;;;;;11.77;10.67;;;16.60;99.90;;;;;;5082278;28;20234;-51
2023/06/20 02:21:45;;;;;;;10.77;9.67;;;16.60;99.90;;;;;;5101522;28;20230;-48
2023/06/20 02:24:16;;;;;;;10.00;9.10;;;16.60;99.90;;;;;;5089089;28;20219;-47
2023/06/20 02:26:47;;;;;;;10.07;9.17;;;16.60;99.90;;;;;;5075389;28;20231;-50
2023/06/20 02:29:16;;;;;;;10.13;9.07;;;16.60;99.90;;;;;;5093893;28;20740;-50
2023/06/20 02:31:46;;;;;;;10.00;9.00;;;16.60;99.90;;;;;;5093133;28;20655;-49
2023/06/20 02:34:19;;;;;;;9.40;8.60;;;16.60;99.90;;;;;;5093651;28;20218;-49
2023/06/20 02:36:49;;;;;;;9.73;8.83;;;16.60;99.90;;;;;;5093511;28;20764;-48
2023/06/20 02:39:17;;;;;;;11.40;10.37;;;16.60;99.90;;;;;;5061627;28;20275;-47
2023/06/20 02:41:48;;;;;;;11.53;10.43;;;16.60;99.90;;;;;;5055231;28;20234;-49
2023/06/20 02:44:17;;;;;;;10.47;9.57;;;16.50;99.90;;;;;;5070446;28;20322;-48
2023/06/20 02:46:56;;;;;;;9.10;8.20;;;16.50;99.90;;;;;;5094082;28;20229;-49
2023/06/20 02:49:32;;;;;;;9.40;8.60;;;16.50;99.90;;;;;;5098515;28;20577;-50
2023/06/20 02:52:09;;;;;;;11.27;10.37;;;16.50;99.90;;;;;;5077360;28;20731;-52
2023/06/20 02:54:46;;;;;;;10.50;9.50;;;16.50;99.90;;;;;;5087349;28;20305;-49
2023/06/20 02:57:19;;;;;;;11.90;10.80;;;16.50;99.90;;;;;;5074819;28;20317;-48
2023/06/20 02:59:58;;;;;;;9.93;9.03;;;16.40;99.90;;;;;;5074864;28;20236;-47
2023/06/20 03:02:31;;;;;;;10.70;9.63;;;16.40;99.90;;;;;;5092569;28;20303;-50
2023/06/20 03:05:03;;;;;;;8.37;7.63;;;16.40;99.90;;;;;;5075035;28;20397;-49
2023/06/20 03:07:34;;;;;;;7.87;7.27;;;16.30;99.90;;;;;;5092180;28;20215;-49
2023/06/20 03:10:06;;;;;;;7.33;6.73;;;16.30;99.90;;;;;;5073481;28;20223;-50
2023/06/20 03:12:35;;;;;;;7.00;6.40;;;16.20;99.90;;;;;;5090379;28;20215;-50
2023/06/20 03:15:04;;;;;;;8.40;7.60;;;16.20;99.90;;;;;;5066812;28;20276;-50
2023/06/20 03:17:35;;;;;;;8.90;8.00;;;16.20;99.90;;;;;;5086319;28;20254;-49
2023/06/20 03:20:09;;;;;;;11.47;9.83;;;16.20;99.90;;;;;;5061012;28;20241;-48
2023/06/20 03:22:38;;;;;;;12.10;10.50;;;16.20;99.90;;;;;;5076163;28;20218;-50
2023/06/20 03:25:07;;;;;;;12.47;10.13;;;16.20;99.90;;;;;;5078403;28;20257;-50
2023/06/20 03:27:40;;;;;;;12.40;11.30;;;16.30;99.90;;;;;;5068768;28;20581;-49
2023/06/20 03:30:10;;;;;;;13.13;11.83;;;16.30;99.90;;;;;;5083086;28;20555;-49
2023/06/20 03:32:44;;;;;;;15.30;13.73;;;16.30;99.90;;;;;;5070874;28;20705;-47
2023/06/20 03:35:13;;;;;;;14.80;13.43;;;16.40;99.90;;;;;;5054434;28;20293;-51
2023/06/20 03:37:41;;;;;;;14.70;13.30;;;16.40;99.90;;;;;;5073509;28;20245;-50
2023/06/20 03:40:10;;;;;;;13.67;12.30;;;16.40;99.90;;;;;;5054554;28;20223;-50
2023/06/20 03:42:42;;;;;;;12.93;11.63;;;16.40;99.90;;;;;;5054394;28;20227;-46
2023/06/20 03:45:11;;;;;;;15.23;13.60;;;16.40;99.90;;;;;;5054460;28;20244;-50
2023/06/20 03:47:41;;;;;;;15.70;14.30;;;16.40;99.90;;;;;;5071634;28;20566;-46
2023/06/20 03:50:09;;;;;;;14.47;13.07;;;16.40;99.90;;;;;;5087201;28;20230;-50
2023/06/20 03:52:38;;;;;;;14.23;12.83;;;16.40;99.90;;;;;;5084943;28;20226;-49
2023/06/20 03:55:08;;;;;;;14.60;13.10;;;16.50;99.90;;;;;;5070267;28;20284;-47
2023/06/20 03:57:37;;;;;;;14.50;13.20;;;16.60;99.90;;;;;;5074127;28;20227;-52
2023/06/20 04:00:11;;;;;;;15.30;13.80;;;16.70;99.90;;;;;;5074357;28;20264;-48
2023/06/20 04:02:44;;;;;;;15.50;13.93;;;16.80;99.90;;;;;;5073939;28;20594;-50
2023/06/20 04:05:14;;;;;;;16.10;14.60;;;16.90;99.90;;;;;;5074475;28;20736;-50
2023/06/20 04:07:42;;;;;;;16.20;14.63;;;17.00;99.90;;;;;;5092105;28;20216;-49
2023/06/20 04:10:12;;;;;;;16.97;15.37;;;17.00;99.90;;;;;;5091350;28;20222;-51
2023/06/20 04:12:42;;;;;;;16.23;14.60;;;17.00;99.90;;;;;;5089496;28;20250;-48
2023/06/20 04:15:12;;;;;;;16.17;14.57;;;17.00;99.90;;;;;;5090763;28;20212;-48
2023/06/20 04:17:41;;;;;;;16.23;14.67;;;17.10;99.90;;;;;;5092344;28;20214;-48
2023/06/20 04:20:13;;;;;;;15.90;14.40;;;17.10;99.90;;;;;;5099710;28;20243;-50
2023/06/20 04:22:44;;;;;;;16.73;15.13;;;17.10;99.90;;;;;;5075838;28;20221;-50
2023/06/20 04:25:13;;;;;;;17.03;15.37;;;17.10;99.90;;;;;;5077024;28;20220;-49
2023/06/20 04:27:44;;;;;;;16.17;14.57;;;17.20;99.90;;;;;;5077722;28;20223;-50
2023/06/20 04:30:14;;;;;;;17.57;15.97;;;17.20;99.90;;;;;;5077543;28;20703;-50
2023/06/20 04:32:48;;;;;;;18.03;16.33;;;17.20;99.90;;;;;;5077754;28;20749;-50
2023/06/20 04:35:16;;;;;;;17.53;15.83;;;17.20;99.90;;;;;;5077764;28;20315;-52
2023/06/20 04:37:48;;;;;;;19.07;17.20;;;17.20;99.90;;;;;;5077608;28;20266;-48
2023/06/20 04:40:17;;;;;;;18.93;17.13;;;17.30;99.90;;;;;;5072007;28;20229;-50
2023/06/20 04:42:46;;;;;;;20.17;18.27;;;17.30;99.90;;;;;;5079612;28;21875;-50
2023/06/20 04:45:15;;;;;;;20.93;18.90;;;17.30;99.90;;;;;;5081537;28;20741;-49
2023/06/20 04:47:44;;;;;;;19.00;17.10;;;17.30;99.90;;;;;;5100308;28;20222;-50
2023/06/20 04:50:12;;;;;;;18.83;16.57;;;17.30;99.90;;;;;;5090758;28;20234;-49
2023/06/20 04:52:40;;;;;;;18.80;17.00;;;17.40;99.90;;;;;;5115982;28;20214;-49
2023/06/20 04:55:09;;;;;;;18.80;17.03;;;17.50;99.90;;;;;;5080479;28;20220;-49
2023/06/20 04:57:37;;;;;;;19.57;17.67;;;17.50;99.90;;;;;;5095405;28;20607;-48
2023/06/20 05:00:12;;;;;;;19.20;17.33;;;17.70;99.90;;;;;;5094532;28;20628;-49
2023/06/20 05:02:44;;;;;;;18.70;16.77;;;17.70;99.90;;;;;;5073981;28;20258;-48
2023/06/20 05:05:12;;;;;;;19.13;17.17;;;17.80;99.90;;;;;;5094891;28;20220;-50
2023/06/20 05:07:42;;;;;;;18.90;17.00;;;17.90;99.90;;;;;;5076718;28;20224;-51
2023/06/20 05:10:11;;;;;;;18.37;16.57;;;17.90;99.90;;;;;;5065697;28;20256;-47
2023/06/20 05:12:39;;;;;;;13.03;11.73;;;18.00;99.90;;;;;;5078194;28;20217;-57
2023/06/20 05:15:08;;;;;;;16.63;13.63;;;18.30;99.90;;;;;;5086881;28;20245;-58
2023/06/20 05:17:36;;;;;;;18.63;15.70;;;19.00;99.90;;;;;;5091136;28;20225;-56
2023/06/20 05:20:08;;;;;;;20.10;17.40;;;19.00;99.90;;;;;;5094764;28;20355;-57
2023/06/20 05:22:36;;;;;;;18.23;16.33;;;18.70;99.90;;;;;;5091852;28;20729;-57
2023/06/20 05:25:05;;;;;;;18.87;16.87;;;18.60;99.90;;;;;;5092994;28;20243;-57
2023/06/20 05:27:33;;;;;;;19.13;16.33;;;18.50;99.90;;;;;;5094797;28;20305;-57
2023/06/20 05:30:01;;;;;;;18.27;16.33;;;18.50;99.90;;;;;;5098219;28;20596;-57
2023/06/20 05:32:29;;;;;;;17.67;15.97;;;18.60;99.90;;;;;;5106031;28;20228;-57
2023/06/20 05:34:58;;;;;;;18.13;16.17;;;18.70;99.90;;;;;;5114421;28;20221;-57
2023/06/20 05:37:29;;;;;;;20.33;15.67;;;18.90;99.90;;;;;;5112445;28;20648;-57
2023/06/20 05:39:57;;;;;;;18.90;15.97;;;19.20;99.90;;;;;;5093022;28;20228;-59
2023/06/20 05:42:29;;;;;;;17.40;15.63;;;19.60;99.90;;;;;;5089991;28;20226;-59
2023/06/20 05:44:57;;;;;;;16.80;15.30;;;20.00;99.90;;;;;;5074626;28;20683;-60
2023/06/20 05:47:25;;;;;;;17.20;15.20;;;20.50;99.90;;;;;;5087622;28;20225;-60
2023/06/20 05:49:57;;;;;;;18.33;16.60;;;20.90;99.90;;;;;;5106455;28;20221;-60
2023/06/20 05:52:25;;;;;;;17.10;15.47;;;20.90;99.90;;;;;;5111751;28;20295;-60
2023/06/20 05:54:55;;;;;;;18.80;16.83;;;21.10;99.90;;;;;;5088385;28;20233;-60
2023/06/20 05:57:23;;;;;;;14.40;13.10;;;21.30;99.90;;;;;;5094394;28;20744;-59
2023/06/20 05:59:51;;;;;;;16.33;14.80;;;21.40;99.90;;;;;;5096339;28;20250;-60
2023/06/20 06:02:21;;;;;;;15.27;13.87;;;21.40;99.90;;;;;;5096276;28;20282;-59
2023/06/20 06:04:49;;;;;;;17.03;15.30;;;21.40;99.90;;;;;;5084462;28;20215;-59
2023/06/20 06:07:17;;;;;;;15.77;14.27;;;21.40;99.90;;;;;;5094054;28;20222;-60
2023/06/20 06:09:47;;;;;;;16.50;14.90;;;21.30;99.90;;;;;;5075564;28;20233;-60
2023/06/20 06:12:16;;;;;;;14.50;13.00;;;21.40;99.90;;;;;;5079130;28;20222;-60
2023/06/20 06:14:44;;;;;;;16.03;14.40;;;21.40;99.90;;;;;;5093619;28;20218;-59
2023/06/20 06:17:13;;;;;;;13.83;12.53;;;21.30;99.90;;;;;;5093853;28;20234;-60
2023/06/20 06:19:41;;;;;;;14.77;13.27;;;21.60;99.90;;;;;;5084211;28;20241;-60
2023/06/20 06:22:09;;;;;;;15.50;14.00;;;21.80;99.90;;;;;;5104654;28;20588;-59
2023/06/20 06:24:38;;;;;;;16.07;14.43;;;21.90;99.90;;;;;;5090337;28;20239;-59
2023/06/20 06:27:07;;;;;;;16.80;15.10;;;22.00;99.90;;;;;;5084921;28;20279;-60
2023/06/20 06:29:36;;;;;;;16.17;13.40;;;22.20;99.90;;;;;;5093447;28;20246;-59
2023/06/20 06:32:05;;;;;;;13.50;12.13;;;22.30;99.90;;;;;;5087990;28;20261;-59
2023/06/20 06:34:34;;;;;;;13.20;11.80;;;22.40;99.90;;;;;;5083410;28;20218;-59
2023/06/20 06:37:03;;;;;;;15.83;11.27;;;22.50;99.90;;;;;;5093310;28;20218;-59
2023/06/20 06:39:32;;;;;;;16.27;12.80;;;22.40;99.90;;;;;;5091855;28;20280;-60
2023/06/20 06:42:00;;;;;;;11.80;10.70;;;22.10;99.90;;;;;;5093609;28;20578;-59
2023/06/20 06:44:28;;;;;;;11.83;10.63;;;22.20;99.90;;;;;;5093373;28;20215;-60
2023/06/20 06:47:00;;;;;;;12.27;11.07;;;22.40;99.90;;;;;;5077680;28;20275;-59
2023/06/20 06:49:31;;;;;;;11.77;10.67;;;22.50;99.90;;;;;;5105095;28;20689;-58
2023/06/20 06:51:59;;;;;;;11.60;10.40;;;22.60;99.90;;;;;;5113763;28;20252;-59
2023/06/20 06:54:27;;;;;;;11.00;9.70;;;22.80;99.90;;;;;;5102510;28;20620;-59
2023/06/20 06:56:55;;;;;;;11.23;10.13;;;23.00;99.90;;;;;;5093115;28;20236;-59
2023/06/20 06:59:23;;;;;;;13.27;11.37;;;23.10;99.90;;;;;;5093261;28;20236;-59
2023/06/20 07:01:51;;;;;;;12.43;10.37;;;23.30;99.90;;;;;;5092750;28;20242;-59
2023/06/20 07:04:21;;;;;;;10.13;9.23;;;23.50;99.90;;;;;;5093234;28;20333;-59
2023/06/20 07:06:49;;;;;;;10.70;9.70;;;23.50;99.90;;;;;;5093072;28;20739;-59
2023/06/20 07:09:17;;;;;;;9.40;8.47;;;23.60;99.90;;;;;;5092505;28;20635;-58
2023/06/20 07:11:45;;;;;;;10.57;8.87;;;23.80;99.90;;;;;;5092641;28;20582;-59
2023/06/20 07:14:13;;;;;;;8.83;8.03;;;23.90;99.90;;;;;;5091815;28;20736;-59
2023/06/20 07:16:41;;;;;;;8.43;7.63;;;24.30;99.90;;;;;;5092153;28;20258;-58
2023/06/20 07:19:31;;;;;;;8.57;7.77;;;24.80;99.90;;;;;;5092083;28;20246;-58
2023/06/20 07:21:59;;;;;;;8.97;8.07;;;25.00;99.90;;;;;;5084057;28;20622;-58
2023/06/20 07:24:27;;;;;;;9.00;8.10;;;25.40;99.90;;;;;;5081181;28;20227;-58
2023/06/20 07:26:55;;;;;;;10.97;8.43;;;25.40;99.90;;;;;;5078281;28;20342;-59
2023/06/20 07:29:23;;;;;;;8.70;7.80;;;25.40;99.90;;;;;;5078741;28;20235;-57
2023/06/20 07:31:51;;;;;;;8.90;7.97;;;25.70;99.90;;;;;;5078267;28;20235;-58
2023/06/20 07:34:19;;;;;;;9.23;8.23;;;25.60;99.90;;;;;;5058261;28;20237;-57
2023/06/20 07:36:49;;;;;;;8.77;7.77;;;25.60;99.90;;;;;;5082913;28;20242;-58
2023/06/20 07:39:17;;;;;;;7.97;7.23;;;25.60;99.90;;;;;;5084971;28;20225;-58
2023/06/20 07:41:45;;;;;;;9.37;8.37;;;26.00;99.90;;;;;;5081765;28;21597;-59
2023/06/20 07:44:13;;;;;;;9.50;8.47;;;26.30;99.90;;;;;;5083987;28;20606;-59
2023/06/20 07:46:41;;;;;;;13.17;9.20;;;26.50;99.90;;;;;;5086869;28;20224;-58
2023/06/20 07:49:09;;;;;;;8.70;7.80;;;26.60;99.90;;;;;;5087370;28;20717;-56
2023/06/20 07:51:37;;;;;;;8.03;7.23;;;26.60;99.90;;;;;;5085905;28;20238;-58
2023/06/20 07:54:07;;;;;;;12.37;8.27;;;26.50;99.90;;;;;;5085758;28;20340;-59
2023/06/20 07:56:35;;;;;;;9.43;7.67;;;26.50;99.90;;;;;;5078997;28;20246;-57
2023/06/20 07:59:03;;;;;;;10.00;8.07;;;26.50;99.90;;;;;;5084150;28;20256;-58
2023/06/20 08:01:31;;;;;;;11.70;8.33;;;26.60;99.90;;;;;;5084491;28;20735;-57
2023/06/20 08:03:59;;;;;;;8.10;7.23;;;26.40;99.90;;;;;;5085600;28;20689;-58
2023/06/20 08:06:27;;;;;;;8.80;7.90;;;26.50;99.90;;;;;;5085111;28;20355;-57
2023/06/20 08:08:55;;;;;;;8.47;7.63;;;26.60;99.90;;;;;;5088882;28;21146;-59
2023/06/20 08:11:25;;;;;;;11.00;7.80;;;26.60;99.90;;;;;;5088752;28;20575;-58
2023/06/20 08:13:53;;;;;;;8.80;7.40;;;26.70;99.90;;;;;;5085816;28;20217;-58
2023/06/20 08:16:22;;;;;;;7.67;6.80;;;26.90;99.90;;;;;;5085631;28;20222;-59
2023/06/20 08:18:51;;;;;;;9.70;6.73;;;27.00;99.90;;;;;;5085613;28;20747;-58
2023/06/20 08:21:19;;;;;;;12.83;7.53;;;27.30;99.90;;;;;;5087210;28;20566;-56
2023/06/20 08:23:47;;;;;;;8.03;7.00;;;27.40;99.90;;;;;;5082453;28;20304;-58
2023/06/20 08:26:16;;;;;;;7.40;6.63;;;27.50;99.90;;;;;;5086184;28;20223;-57
2023/06/20 08:28:45;;;;;;;7.90;7.10;;;27.80;99.90;;;;;;5084812;28;20674;-59
2023/06/20 08:31:15;;;;;;;7.53;6.83;;;27.80;99.90;;;;;;5077149;28;20237;-57
2023/06/20 08:33:43;;;;;;;8.63;6.80;;;28.30;99.90;;;;;;5083692;28;20578;-58
2023/06/20 08:36:11;;;;;;;11.17;6.97;;;28.50;99.90;;;;;;5083345;28;20244;-56
2023/06/20 08:38:39;;;;;;;6.80;6.10;;;28.80;99.90;;;;;;5085517;28;20316;-57
2023/06/20 08:41:09;;;;;;;7.33;5.93;;;28.70;99.90;;;;;;5088660;28;20280;-58
2023/06/20 08:43:37;;;;;;;7.80;6.90;;;28.70;99.90;;;;;;5085632;28;20881;-57
2023/06/20 08:46:07;;;;;;;9.87;7.37;;;28.90;99.90;;;;;;5085998;28;20258;-57
2023/06/20 08:48:35;;;;;;;8.00;6.20;;;29.00;99.90;;;;;;5087755;28;20248;-58
2023/06/20 08:51:03;;;;;;;7.63;6.83;;;29.30;99.90;;;;;;5089799;28;20305;-58
2023/06/20 08:53:33;;;;;;;7.40;6.57;;;29.30;99.90;;;;;;5083293;28;20756;-55
2023/06/20 08:56:02;;;;;;;7.43;6.00;;;29.30;99.90;;;;;;5086782;28;20640;-57
2023/06/20 08:58:32;;;;;;;8.67;6.50;;;29.70;99.90;;;;;;5085667;28;20860;-58
2023/06/20 09:01:00;;;;;;;7.00;6.23;;;29.70;99.90;;;;;;5085371;28;20330;-58
2023/06/20 09:03:30;;;;;;;9.23;7.50;;;30.20;99.90;;;;;;5083413;28;20316;-55
2023/06/20 09:05:58;;;;;;;7.67;5.93;;;30.20;99.90;;;;;;5088782;28;20706;-59
2023/06/20 09:08:34;;;;;;;6.40;5.80;;;30.30;99.90;;;;;;5085020;28;20211;-58
2023/06/20 09:11:07;;;;;;;9.27;6.80;;;30.70;99.90;;;;;;5086538;28;20664;-57
2023/06/20 09:13:35;;;;;;;7.93;6.00;;;30.70;99.90;;;;;;5083251;28;20845;-58
2023/06/20 09:16:07;;;;;;;6.80;5.53;;;31.00;99.90;;;;;;5085270;28;20233;-56
2023/06/20 09:18:40;;;;;;;6.27;5.60;;;31.20;99.90;;;;;;5085282;28;20252;-58
2023/06/20 09:21:15;;;;;;;6.30;5.70;;;32.00;99.90;;;;;;5088258;28;20234;-57
2023/06/20 09:23:44;;;;;;;7.37;5.77;;;32.20;99.90;;;;;;5085943;28;20272;-56
2023/06/20 09:26:15;;;;;;;7.43;5.63;;;32.50;99.90;;;;;;5083986;28;20311;-57
2023/06/20 09:28:44;;;;;;;8.03;6.43;;;32.10;99.90;;;;;;5084948;28;20216;-56
2023/06/20 09:31:13;;;;;;;7.70;6.17;;;31.90;99.90;;;;;;5085958;28;20617;-56
2023/06/20 09:33:43;;;;;;;7.30;5.83;;;31.70;99.90;;;;;;5065789;28;20229;-58
2023/06/20 09:36:13;;;;;;;7.97;7.27;;;31.50;99.90;;;;;;5088506;28;20251;-57
2023/06/20 09:38:43;;;;;;;6.73;6.07;;;31.60;99.90;;;;;;5086951;28;20213;-58
2023/06/20 09:41:15;;;;;;;6.43;5.67;;;32.10;99.90;;;;;;5089231;28;20229;-57
2023/06/20 09:43:43;;;;;;;8.87;6.60;;;32.60;99.90;;;;;;5087208;28;20227;-58
2023/06/20 09:46:11;;;;;;;6.83;6.17;;;32.30;99.90;;;;;;5087708;28;20751;-57
2023/06/20 09:48:40;;;;;;;7.97;7.20;;;32.00;99.90;;;;;;5086408;28;20230;-58
2023/06/20 09:51:10;;;;;;;7.30;6.03;;;31.60;99.90;;;;;;5090284;28;20322;-57
2023/06/20 09:53:45;;;;;;;6.23;5.47;;;31.30;99.90;;;;;;5086182;28;20228;-56
2023/06/20 09:56:15;;;;;;;8.40;6.00;;;31.10;99.90;;;;;;5087965;28;20238;-58
2023/06/20 09:58:45;;;;;;;6.70;6.10;;;31.00;99.90;;;;;;5087898;28;20233;-57
2023/06/20 10:01:15;;;;;;;6.60;6.00;;;30.60;99.90;;;;;;5088333;28;20227;-57
2023/06/20 10:03:44;;;;;;;7.27;6.57;;;30.40;99.90;;;;;;5087190;28;20702;-56
2023/06/20 10:06:14;;;;;;;6.70;5.83;;;30.20;99.90;;;;;;5088049;28;20226;-57
2023/06/20 10:08:44;;;;;;;8.17;6.17;;;30.10;99.90;;;;;;5086168;28;20694;-58
2023/06/20 10:11:12;;;;;;;6.37;5.73;;;30.00;99.90;;;;;;5082739;28;20222;-56
2023/06/20 10:13:41;;;;;;;6.30;5.50;;;30.10;99.90;;;;;;5082273;28;20840;-58
2023/06/20 10:16:09;;;;;;;8.17;6.10;;;30.10;99.90;;;;;;5083365;28;20232;-56
2023/06/20 10:18:39;;;;;;;8.13;6.70;;;30.00;99.90;;;;;;5087533;28;20610;-56
2023/06/20 10:21:08;;;;;;;8.53;6.70;;;29.90;99.90;;;;;;5084232;28;20226;-57
2023/06/20 10:23:38;;;;;;;6.80;6.20;;;29.80;99.90;;;;;;5083839;28;20229;-56
2023/06/20 10:26:08;;;;;;;6.90;6.20;;;29.60;99.90;;;;;;5082520;28;20530;-55
2023/06/20 10:28:39;;;;;;;6.17;5.60;;;29.40;99.90;;;;;;5082694;28;20222;-57
2023/06/20 10:31:07;;;;;;;6.93;6.23;;;29.40;99.90;;;;;;5083663;28;20229;-57
2023/06/20 10:33:36;;;;;;;7.53;6.20;;;29.10;99.90;;;;;;5081505;28;20233;-57
2023/06/20 10:36:06;;;;;;;6.83;6.17;;;29.00;99.90;;;;;;5088940;28;20230;-57
2023/06/20 10:38:37;;;;;;;8.93;6.17;;;29.00;99.90;;;;;;5079210;28;20231;-57
2023/06/20 10:41:15;;;;;;;7.57;6.80;;;28.90;99.90;;;;;;5078846;28;20230;-58
2023/06/20 10:43:51;;;;;;;7.20;6.50;;;28.50;99.90;;;;;;5077047;28;20705;-56
2023/06/20 10:46:21;;;;;;;8.27;7.40;;;28.30;99.90;;;;;;5080264;28;20800;-57
2023/06/20 10:48:49;;;;;;;7.27;6.67;;;27.90;99.90;;;;;;5079920;28;20233;-58
2023/06/20 10:51:17;;;;;;;8.43;7.00;;;27.50;99.90;;;;;;5082380;28;20222;-57
2023/06/20 10:53:45;;;;;;;6.90;6.27;;;27.50;99.90;;;;;;5081394;28;20257;-58
2023/06/20 10:56:26;;;;;;;7.50;6.90;;;27.30;99.90;;;;;;5085032;28;20215;-58
2023/06/20 10:58:54;;;;;;;9.23;6.53;;;27.40;99.90;;;;;;5085617;28;20345;-58
2023/06/20 11:01:27;;;;;;;9.33;6.93;;;27.40;99.90;;;;;;5085341;28;20241;-56
2023/06/20 11:03:57;;;;;;;8.37;6.87;;;27.50;99.90;;;;;;5083858;28;20234;-59
2023/06/20 11:06:26;;;;;;;7.03;6.30;;;27.70;99.90;;;;;;5082802;28;20317;-56
2023/06/20 11:08:55;;;;;;;8.23;7.13;;;27.60;99.90;;;;;;5082398;28;20225;-57
2023/06/20 11:11:34;;;;;;;7.70;6.90;;;27.50;99.90;;;;;;5084052;28;20237;-56
2023/06/20 11:14:13;;;;;;;7.80;7.00;;;27.50;99.90;;;;;;5082294;28;20301;-57
2023/06/20 11:16:42;;;;;;;7.73;6.97;;;27.40;99.90;;;;;;5084380;28;20689;-57
2023/06/20 11:19:10;;;;;;;9.37;7.23;;;27.20;99.90;;;;;;5086503;28;20333;-57
2023/06/20 11:22:00;;;;;;;7.50;7.00;;;27.30;99.90;;;;;;5084246;28;20351;-55
2023/06/20 11:24:31;;;;;;;8.37;7.63;;;27.40;99.90;;;;;;5084864;28;20221;-57
2023/06/20 11:27:13;;;;;;;7.47;6.77;;;27.50;99.90;;;;;;5087335;28;21495;-57
2023/06/20 11:29:41;;;;;;;8.77;7.80;;;27.40;99.90;;;;;;5085001;28;20222;-57
2023/06/20 11:32:10;;;;;;;8.63;7.90;;;27.30;99.90;;;;;;5081240;28;20660;-56
2023/06/20 11:34:53;;;;;;;9.17;8.03;;;27.20;99.90;;;;;;5084294;28;20716;-57
2023/06/20 11:37:22;;;;;;;8.50;7.70;;;26.90;99.90;;;;;;5088077;28;20753;-56
2023/06/20 11:39:50;;;;;;;9.13;8.33;;;27.10;99.90;;;;;;5083343;28;20225;-57
2023/06/20 11:42:19;;;;;;;9.47;8.57;;;27.20;99.90;;;;;;5083282;28;20244;-56
2023/06/20 11:44:48;;;;;;;9.93;8.90;;;27.10;99.90;;;;;;5084888;28;20234;-57
2023/06/20 11:47:16;;;;;;;10.10;7.97;;;27.10;99.90;;;;;;5082931;28;20573;-57
2023/06/20 11:49:44;;;;;;;10.70;7.63;;;27.10;99.90;;;;;;5086858;28;20557;-57
2023/06/20 11:52:12;;;;;;;9.20;8.40;;;27.20;99.90;;;;;;5088550;28;20582;-56
2023/06/20 11:54:58;;;;;;;8.20;7.50;;;27.40;99.90;;;;;;5085591;28;20244;-57
2023/06/20 11:57:30;;;;;;;7.97;7.37;;;27.50;99.90;;;;;;5087176;28;20224;-57
2023/06/20 12:00:05;;;;;;;8.07;7.27;;;27.60;99.90;;;;;;5084978;28;20230;-57
2023/06/20 12:02:38;;;;;;;8.53;7.73;;;27.80;99.90;;;;;;5082068;28;20320;-57
2023/06/20 12:05:06;;;;;;;8.20;7.40;;;27.80;99.90;;;;;;5084120;28;20226;-57
2023/06/20 12:07:49;;;;;;;8.47;7.10;;;27.90;99.90;;;;;;5084688;28;20260;-57
2023/06/20 12:10:18;;;;;;;8.60;7.73;;;28.00;99.90;;;;;;5085061;28;20602;-57
2023/06/20 12:12:48;;;;;;;7.93;7.27;;;27.90;99.90;;;;;;5083286;28;20636;-57
2023/06/20 12:15:17;;;;;;;7.97;7.17;;;28.10;99.90;;;;;;5086631;28;20228;-57
2023/06/20 12:17:45;;;;;;;8.33;7.47;;;28.00;99.90;;;;;;5083943;28;21313;-55
2023/06/20 12:20:14;;;;;;;8.33;7.53;;;27.90;99.90;;;;;;5084933;28;20245;-57
2023/06/20 12:23:02;;;;;;;8.43;7.53;;;28.00;99.90;;;;;;5082419;28;21490;-57
2023/06/20 12:25:31;;;;;;;9.53;7.30;;;27.80;99.90;;;;;;5085270;28;21545;-58
2023/06/20 12:28:01;;;;;;;7.53;6.83;;;27.80;99.90;;;;;;5083489;28;20258;-57
2023/06/20 12:30:30;;;;;;;8.03;7.17;;;27.80;99.90;;;;;;5083414;28;20232;-57
2023/06/20 12:32:58;;;;;;;8.53;7.27;;;27.90;99.90;;;;;;5085669;28;20260;-57
2023/06/20 12:35:27;;;;;;;7.60;7.00;;;28.00;99.90;;;;;;5083805;28;20225;-56
2023/06/20 12:37:55;;;;;;;7.77;6.93;;;28.20;99.90;;;;;;5084057;28;20721;-57
2023/06/20 12:40:24;;;;;;;7.27;6.67;;;28.40;99.90;;;;;;5095006;28;20230;-58
2023/06/20 12:42:53;;;;;;;9.73;6.90;;;28.40;99.90;;;;;;5095412;28;20704;-57
2023/06/20 12:45:22;;;;;;;9.23;7.33;;;28.40;99.90;;;;;;5102241;28;20290;-57
2023/06/20 12:47:50;;;;;;;9.73;7.10;;;28.30;99.90;;;;;;5095458;28;20220;-57
2023/06/20 12:50:18;;;;;;;7.67;6.97;;;28.30;99.90;;;;;;5095847;28;20226;-57
2023/06/20 12:52:46;;;;;;;6.90;6.30;;;28.30;99.90;;;;;;5085598;28;20255;-57